Time,TemperatureF,DewpointF,PressureIn,WindDirection,WindDirectionDegrees,WindSpeedMPH,WindSpeedGustMPH,Humidity,HourlyPrecipIn,Conditions,Clouds,dailyrainin,SolarRadiationWatts/m^2,SoftwareType,DateUTC
2013-10-15 00:00:00,47.9,43.0,30.09,ENE,67,0.0,8.0,83,0.00,,---,0.01,0.00,VWS V14.01,2013-10-15 05:00:00,
2013-10-15 00:01:00,47.8,43.2,30.10,ENE,67,0.0,1.0,84,0.00,,---,0.00,0.00,VWS V14.01,2013-10-15 05:01:00,
2013-10-15 00:06:00,47.7,43.1,30.09,ENE,67,1.0,2.0,84,0.00,,---,0.00,0.00,VWS V14.01,2013-10-15 05:06:00,
2013-10-15 00:11:00,47.6,43.0,30.09,NE,53,2.0,4.0,84,0.00,,---,0.00,0.00,VWS V14.01,2013-10-15 05:11:00,
2013-10-15 00:16:00,47.4,42.8,30.08,ENE,61,1.0,5.0,84,0.00,,---,0.00,0.00,VWS V14.01,2013-10-15 05:16:00,
2013-10-15 00:21:00,47.2,42.6,30.08,NE,54,4.0,5.0,84,0.00,,---,0.00,0.00,VWS V14.01,2013-10-15 05:21:00,
2013-10-15 00:26:00,47.1,42.8,30.08,NE,53,0.0,5.0,85,0.00,,---,0.00,0.00,VWS V14.01,2013-10-15 05:26:00,
2013-10-15 00:31:00,47.1,42.8,30.08,NE,53,0.0,5.0,85,0.00,,---,0.00,0.00,VWS V14.01,2013-10-15 05:31:00,
2013-10-15 00:36:00,46.9,42.6,30.07,NE,53,2.0,5.0,85,0.00,,---,0.00,0.00,VWS V14.01,2013-10-15 05:36:00,
2013-10-15 00:41:00,46.8,42.5,30.07,ENE,59,0.0,6.0,85,0.00,,---,0.00,0.00,VWS V14.01,2013-10-15 05:41:00,
2013-10-15 00:46:00,46.7,42.7,30.07,NE,53,0.0,6.0,86,0.00,,---,0.00,0.00,VWS V14.01,2013-10-15 05:46:00,
2013-10-15 00:51:00,46.7,42.7,30.07,NE,53,0.0,6.0,86,0.00,,---,0.00,0.00,VWS V14.01,2013-10-15 05:51:00,
2013-10-15 00:56:00,46.6,42.6,30.06,NE,53,1.0,6.0,86,0.00,,---,0.00,0.00,VWS V14.01,2013-10-15 05:56:00,
2013-10-15 01:00:00,46.6,42.6,30.07,NE,53,2.0,6.0,86,0.00,,---,0.00,0.00,VWS V14.01,2013-10-15 06:00:00,
2013-10-15 01:01:00,46.6,42.6,30.06,NE,51,3.0,4.0,86,0.00,,---,0.00,0.00,VWS V14.01,2013-10-15 06:01:00,
2013-10-15 01:06:00,46.6,42.6,30.07,NE,51,1.0,4.0,86,0.00,,---,0.00,0.00,VWS V14.01,2013-10-15 06:06:00,
2013-10-15 01:44:00,46.7,43.0,30.04,NE,51,0.0,4.0,87,0.00,,---,0.00,0.00,VWS V14.01,2013-10-15 06:44:00,
2013-10-15 01:49:00,46.7,43.3,30.04,NE,51,1.0,4.0,88,0.00,,---,0.00,0.00,VWS V14.01,2013-10-15 06:49:00,
2013-10-15 01:54:00,46.8,43.4,30.04,NE,51,0.0,4.0,88,0.00,,---,0.00,0.00,VWS V14.01,2013-10-15 06:54:00,
2013-10-15 01:59:00,47.1,43.7,30.04,NE,51,2.0,2.0,88,0.00,,---,0.00,0.00,VWS V14.01,2013-10-15 06:59:00,
2013-10-15 02:00:00,47.0,43.6,30.04,NE,51,0.0,4.0,88,0.00,,---,0.00,0.00,VWS V14.01,2013-10-15 07:00:00,
2013-10-15 02:04:00,47.3,43.9,30.03,NE,51,2.0,2.0,88,0.00,,---,0.00,0.00,VWS V14.01,2013-10-15 07:04:00,
2013-10-15 02:09:00,47.6,44.2,30.03,ENE,65,0.0,2.0,88,0.00,,---,0.00,0.00,VWS V14.01,2013-10-15 07:09:00,
2013-10-15 02:14:00,47.9,44.5,30.03,NE,34,1.0,3.0,88,0.00,,---,0.00,0.00,VWS V14.01,2013-10-15 07:14:00,
2013-10-15 02:19:00,48.3,44.9,30.02,ENE,78,2.0,5.0,88,0.00,,---,0.00,0.00,VWS V14.01,2013-10-15 07:19:00,
2013-10-15 02:24:00,48.7,45.3,30.02,NE,52,0.0,5.0,88,0.00,,---,0.00,0.00,VWS V14.01,2013-10-15 07:24:00,
2013-10-15 02:29:00,49.0,45.6,30.01,East,85,2.0,5.0,88,0.00,,---,0.00,0.00,VWS V14.01,2013-10-15 07:29:00,
2013-10-15 02:34:00,49.4,45.7,30.00,NE,51,2.0,8.0,87,0.00,,---,0.00,0.00,VWS V14.01,2013-10-15 07:34:00,
2013-10-15 02:39:00,49.9,45.9,30.00,ENE,63,0.0,8.0,86,0.00,,---,0.00,0.00,VWS V14.01,2013-10-15 07:39:00,
2013-10-15 02:44:00,50.3,46.0,30.00,SE,134,0.0,8.0,85,0.00,,---,0.00,0.00,VWS V14.01,2013-10-15 07:44:00,
2013-10-15 02:49:00,50.5,46.2,30.00,East,88,0.0,8.0,85,0.00,,---,0.00,0.00,VWS V14.01,2013-10-15 07:49:00,
2013-10-15 02:54:00,50.6,46.0,30.00,ESE,108,0.0,8.0,84,0.00,,---,0.00,0.00,VWS V14.01,2013-10-15 07:54:00,
2013-10-15 02:59:00,50.8,46.2,29.99,ENE,76,2.0,2.0,84,0.00,,---,0.00,0.00,VWS V14.01,2013-10-15 07:59:00,
2013-10-15 03:00:00,50.8,46.2,29.99,ESE,105,1.0,8.0,84,0.00,,---,0.00,0.00,VWS V14.01,2013-10-15 08:00:00,
2013-10-15 03:04:00,51.0,46.3,29.99,ESE,121,0.0,3.0,84,0.00,,---,0.00,0.00,VWS V14.01,2013-10-15 08:04:00,
2013-10-15 03:09:00,51.1,46.1,29.99,ESE,122,1.0,3.0,83,0.00,,---,0.00,0.00,VWS V14.01,2013-10-15 08:09:00,
2013-10-15 03:14:00,51.2,46.2,29.99,SSE,162,3.0,4.0,83,0.00,,---,0.00,0.00,VWS V14.01,2013-10-15 08:14:00,
2013-10-15 03:19:00,51.3,46.3,29.98,SE,145,0.0,4.0,83,0.00,,---,0.00,0.00,VWS V14.01,2013-10-15 08:19:00,
2013-10-15 03:24:00,51.5,46.5,29.98,SE,145,1.0,4.0,83,0.00,,---,0.00,0.00,VWS V14.01,2013-10-15 08:24:00,
2013-10-15 03:29:00,51.5,46.2,29.98,SE,145,0.0,4.0,82,0.00,,---,0.00,0.00,VWS V14.01,2013-10-15 08:29:00,
2013-10-15 03:34:00,51.7,46.4,29.97,SSE,155,0.0,4.0,82,0.00,,---,0.00,0.00,VWS V14.01,2013-10-15 08:34:00,
2013-10-15 03:39:00,51.7,46.7,29.97,ENE,71,1.0,4.0,83,0.00,,---,0.00,0.00,VWS V14.01,2013-10-15 08:39:00,
2013-10-15 03:44:00,51.8,46.8,29.97,North,355,0.0,5.0,83,0.00,,---,0.00,0.00,VWS V14.01,2013-10-15 08:44:00,
2013-10-15 03:49:00,51.8,46.8,29.97,SE,135,0.0,5.0,83,0.00,,---,0.00,0.00,VWS V14.01,2013-10-15 08:49:00,
2013-10-15 03:50:00,51.8,46.8,29.97,SE,135,0.0,5.0,83,0.00,,---,0.00,0.00,VWS V14.01,2013-10-15 08:50:00,
2013-10-15 03:55:00,51.9,46.9,29.96,SE,138,0.0,5.0,83,0.00,,---,0.00,0.00,VWS V14.01,2013-10-15 08:55:00,
2013-10-15 04:00:00,51.9,46.9,29.96,SSE,167,2.0,2.0,83,0.00,,---,0.00,0.00,VWS V14.01,2013-10-15 09:00:00,
2013-10-15 04:05:00,51.9,46.9,29.96,SSE,167,1.0,2.0,83,0.00,,---,0.00,0.00,VWS V14.01,2013-10-15 09:05:00,
2013-10-15 04:10:00,51.8,47.1,29.95,ENE,67,3.0,5.0,84,0.00,,---,0.00,0.00,VWS V14.01,2013-10-15 09:10:00,
2013-10-15 04:15:00,51.8,47.4,29.95,ESE,111,0.0,5.0,85,0.00,,---,0.00,0.00,VWS V14.01,2013-10-15 09:15:00,
2013-10-15 04:20:00,51.7,47.3,29.95,ESE,104,1.0,5.0,85,0.00,,---,0.00,0.00,VWS V14.01,2013-10-15 09:20:00,
2013-10-15 04:25:00,51.7,47.3,29.95,SE,142,1.0,5.0,85,0.00,,---,0.00,0.00,VWS V14.01,2013-10-15 09:25:00,
2013-10-15 04:30:00,51.6,47.6,29.96,SSE,167,2.0,5.0,86,0.00,,---,0.00,0.00,VWS V14.01,2013-10-15 09:30:00,
2013-10-15 04:35:00,51.6,47.6,29.95,SSE,156,0.0,5.0,86,0.01,,---,0.01,0.00,VWS V14.01,2013-10-15 09:35:00,
2013-10-15 04:40:00,51.5,47.5,29.95,SSE,163,4.0,5.0,86,0.02,,---,0.02,0.00,VWS V14.01,2013-10-15 09:40:00,
2013-10-15 04:45:00,51.5,47.8,29.95,SSE,156,2.0,5.0,87,0.02,,---,0.02,0.00,VWS V14.01,2013-10-15 09:45:00,
2013-10-15 04:50:00,51.4,47.7,29.95,SE,125,1.0,5.0,87,0.03,,---,0.03,0.00,VWS V14.01,2013-10-15 09:50:00,
2013-10-15 04:55:00,51.3,47.9,29.95,SE,146,0.0,5.0,88,0.04,,---,0.04,0.00,VWS V14.01,2013-10-15 09:55:00,
2013-10-15 05:00:00,51.2,48.1,29.95,SSE,168,1.0,2.0,89,0.06,,---,0.06,0.00,VWS V14.01,2013-10-15 10:00:00,
2013-10-15 05:05:00,51.1,48.0,29.94,South,171,0.0,2.0,89,0.07,,---,0.07,0.00,VWS V14.01,2013-10-15 10:05:00,
2013-10-15 05:10:00,51.0,48.2,29.93,South,171,1.0,2.0,90,0.09,,---,0.09,0.00,VWS V14.01,2013-10-15 10:10:00,
2013-10-15 05:15:00,50.9,48.1,29.91,ESE,106,1.0,4.0,90,0.10,,---,0.10,0.00,VWS V14.01,2013-10-15 10:15:00,
2013-10-15 05:20:00,50.8,48.3,29.91,ESE,105,0.0,4.0,91,0.10,,---,0.10,0.00,VWS V14.01,2013-10-15 10:20:00,
2013-10-15 05:25:00,50.7,48.2,29.91,SW,234,0.0,6.0,91,0.11,,---,0.11,0.00,VWS V14.01,2013-10-15 10:25:00,
2013-10-15 05:30:00,50.6,48.1,29.91,SE,144,3.0,6.0,91,0.12,,---,0.12,0.00,VWS V14.01,2013-10-15 10:30:00,
2013-10-15 05:35:00,50.5,48.3,29.91,South,171,0.0,6.0,92,0.12,,---,0.12,0.00,VWS V14.01,2013-10-15 10:35:00,
2013-10-15 05:40:00,50.5,48.3,29.90,ESE,109,3.0,6.0,92,0.13,,---,0.13,0.00,VWS V14.01,2013-10-15 10:40:00,
2013-10-15 05:45:00,50.5,48.3,29.90,SSE,164,0.0,6.0,92,0.14,,---,0.14,0.00,VWS V14.01,2013-10-15 10:45:00,
2013-10-15 05:50:00,50.5,48.3,29.89,SE,132,0.0,6.0,92,0.15,,---,0.15,0.00,VWS V14.01,2013-10-15 10:50:00,
2013-10-15 05:55:00,50.5,48.6,29.89,East,82,3.0,6.0,93,0.16,,---,0.16,0.00,VWS V14.01,2013-10-15 10:55:00,
2013-10-15 06:00:00,50.5,48.6,29.89,SE,138,0.0,5.0,93,0.10,,---,0.16,0.00,VWS V14.01,2013-10-15 11:00:00,
2013-10-15 06:05:00,50.5,48.6,29.88,ESE,102,1.0,5.0,93,0.10,,---,0.16,0.00,VWS V14.01,2013-10-15 11:05:00,
2013-10-15 06:10:00,50.5,48.6,29.88,SSE,155,0.0,5.0,93,0.11,,---,0.17,0.00,VWS V14.01,2013-10-15 11:10:00,
2013-10-15 06:15:00,50.6,48.7,29.88,SE,131,1.0,5.0,93,0.11,,---,0.17,0.00,VWS V14.01,2013-10-15 11:15:00,
2013-10-15 06:20:00,50.6,48.7,29.88,SE,140,2.0,5.0,93,0.11,,---,0.17,0.00,VWS V14.01,2013-10-15 11:20:00,
2013-10-15 06:25:00,50.7,48.8,29.89,South,173,3.0,5.0,93,0.12,,---,0.18,0.00,VWS V14.01,2013-10-15 11:25:00,
2013-10-15 06:30:00,50.8,49.1,29.89,South,182,1.0,5.0,94,0.12,,---,0.18,0.00,VWS V14.01,2013-10-15 11:30:00,
2013-10-15 06:35:00,50.8,49.1,29.89,South,182,0.0,5.0,94,0.13,,---,0.19,0.00,VWS V14.01,2013-10-15 11:35:00,
2013-10-15 06:40:00,50.8,49.1,29.88,South,182,0.0,5.0,94,0.13,,---,0.19,0.00,VWS V14.01,2013-10-15 11:40:00,
2013-10-15 06:45:00,50.9,49.2,29.87,SSW,196,0.0,5.0,94,0.14,,---,0.20,0.00,VWS V14.01,2013-10-15 11:45:00,
2013-10-15 06:50:00,50.9,49.2,29.86,SE,144,1.0,5.0,94,0.15,,---,0.21,0.00,VWS V14.01,2013-10-15 11:50:00,
2013-10-15 06:55:00,50.9,49.2,29.86,ESE,102,2.0,5.0,94,0.15,,---,0.21,0.00,VWS V14.01,2013-10-15 11:55:00,
2013-10-15 07:00:00,50.9,49.2,29.86,SSE,156,2.0,4.0,94,0.07,,---,0.23,0.00,VWS V14.01,2013-10-15 12:00:00,
2013-10-15 07:05:00,50.8,49.1,29.86,SE,143,1.0,4.0,94,0.10,,---,0.26,0.00,VWS V14.01,2013-10-15 12:05:00,
2013-10-15 07:10:00,50.8,49.1,29.86,SSE,152,1.0,4.0,94,0.11,,---,0.27,0.00,VWS V14.01,2013-10-15 12:10:00,
2013-10-15 07:15:00,50.7,49.0,29.86,SE,140,1.0,4.0,94,0.12,,---,0.28,0.00,VWS V14.01,2013-10-15 12:15:00,
2013-10-15 07:20:00,50.7,49.0,29.85,SSE,157,1.0,4.0,94,0.14,,---,0.30,0.00,VWS V14.01,2013-10-15 12:20:00,
2013-10-15 07:25:00,50.7,49.0,29.85,SSE,156,4.0,4.0,94,0.16,,---,0.32,0.00,VWS V14.01,2013-10-15 12:25:00,
2013-10-15 07:30:00,50.6,49.2,29.85,SSE,152,2.0,4.0,95,0.16,,---,0.32,5.00,VWS V14.01,2013-10-15 12:30:00,
2013-10-15 07:35:00,50.7,49.3,29.85,SSE,167,0.0,4.0,95,0.18,,---,0.34,0.00,VWS V14.01,2013-10-15 12:35:00,
2013-10-15 07:40:00,50.7,49.3,29.85,South,169,0.0,4.0,95,0.18,,---,0.34,0.00,VWS V14.01,2013-10-15 12:40:00,
2013-10-15 07:45:00,50.8,49.4,29.85,SE,124,2.0,4.0,95,0.18,,---,0.34,0.00,VWS V14.01,2013-10-15 12:45:00,
2013-10-15 07:50:00,50.8,49.4,29.84,NE,51,2.0,4.0,95,0.19,,---,0.35,0.00,VWS V14.01,2013-10-15 12:50:00,
2013-10-15 07:55:00,50.8,49.4,29.83,SE,145,0.0,4.0,95,0.20,,---,0.36,5.00,VWS V14.01,2013-10-15 12:55:00,
2013-10-15 08:00:00,50.8,49.4,29.84,SE,145,1.0,3.0,95,0.14,,---,0.37,0.00,VWS V14.01,2013-10-15 13:00:00,
2013-10-15 08:05:00,50.8,49.4,29.83,ESE,121,0.0,4.0,95,0.14,,---,0.37,0.00,VWS V14.01,2013-10-15 13:05:00,
2013-10-15 08:10:00,50.9,49.5,29.83,SE,143,0.0,4.0,95,0.15,,---,0.38,0.00,VWS V14.01,2013-10-15 13:10:00,
2013-10-15 08:15:00,50.9,49.5,29.83,SE,146,2.0,4.0,95,0.16,,---,0.39,0.00,VWS V14.01,2013-10-15 13:15:00,
2013-10-15 08:20:00,51.0,49.6,29.83,SE,141,1.0,4.0,95,0.17,,---,0.40,5.00,VWS V14.01,2013-10-15 13:20:00,
2013-10-15 08:25:00,51.0,49.6,29.83,SE,140,2.0,4.0,95,0.18,,---,0.41,18.00,VWS V14.01,2013-10-15 13:25:00,
2013-10-15 08:30:00,51.1,49.7,29.83,South,184,1.0,4.0,95,0.19,,---,0.42,16.00,VWS V14.01,2013-10-15 13:30:00,
2013-10-15 08:35:00,51.2,49.8,29.83,SE,137,0.0,4.0,95,0.20,,---,0.43,12.00,VWS V14.01,2013-10-15 13:35:00,
2013-10-15 08:40:00,51.3,49.9,29.82,SE,145,2.0,4.0,95,0.20,,---,0.43,14.00,VWS V14.01,2013-10-15 13:40:00,
2013-10-15 08:45:00,51.4,50.0,29.82,SSE,165,0.0,4.0,95,0.20,,---,0.43,16.00,VWS V14.01,2013-10-15 13:45:00,
2013-10-15 08:50:00,51.5,50.4,29.82,SSW,207,1.0,4.0,96,0.21,,---,0.44,40.00,VWS V14.01,2013-10-15 13:50:00,
2013-10-15 08:55:00,51.6,50.5,29.82,SSE,163,1.0,4.0,96,0.21,,---,0.44,37.00,VWS V14.01,2013-10-15 13:55:00,
2013-10-15 09:00:00,51.8,50.7,29.83,South,180,2.0,4.0,96,0.08,,---,0.44,16.00,VWS V14.01,2013-10-15 14:00:00,
2013-10-15 09:05:00,51.9,50.8,29.83,SSW,204,4.0,4.0,96,0.08,,---,0.44,12.00,VWS V14.01,2013-10-15 14:05:00,
2013-10-15 09:10:00,52.0,50.9,29.83,SSW,196,4.0,5.0,96,0.08,,---,0.44,16.00,VWS V14.01,2013-10-15 14:10:00,
2013-10-15 09:15:00,52.0,50.6,29.83,South,190,0.0,8.0,95,0.08,,---,0.44,26.00,VWS V14.01,2013-10-15 14:15:00,
2013-10-15 09:20:00,52.1,50.7,29.83,SE,143,2.0,8.0,95,0.09,,---,0.45,16.00,VWS V14.01,2013-10-15 14:20:00,
2013-10-15 09:25:00,52.0,50.6,29.82,SSE,153,0.0,8.0,95,0.10,,---,0.46,53.00,VWS V14.01,2013-10-15 14:25:00,
2013-10-15 09:30:00,52.1,50.7,29.82,SW,215,2.0,8.0,95,0.10,,---,0.46,16.00,VWS V14.01,2013-10-15 14:30:00,
2013-10-15 09:35:00,52.1,50.7,29.82,South,186,1.0,8.0,95,0.10,,---,0.46,21.00,VWS V14.01,2013-10-15 14:35:00,
2013-10-15 09:40:00,52.1,51.0,29.81,South,177,2.0,8.0,96,0.10,,---,0.46,35.00,VWS V14.01,2013-10-15 14:40:00,
2013-10-15 09:45:00,52.2,51.1,29.81,South,173,1.0,8.0,96,0.10,,---,0.46,28.00,VWS V14.01,2013-10-15 14:45:00,
2013-10-15 09:50:00,52.2,51.1,29.80,South,181,1.0,8.0,96,0.11,,---,0.47,26.00,VWS V14.01,2013-10-15 14:50:00,
2013-10-15 09:55:00,52.3,51.2,29.80,South,172,1.0,8.0,96,0.11,,---,0.47,26.00,VWS V14.01,2013-10-15 14:55:00,
2013-10-15 10:00:00,52.3,51.2,29.80,SSE,162,3.0,3.0,96,0.03,,---,0.47,40.00,VWS V14.01,2013-10-15 15:00:00,
2013-10-15 10:05:00,52.3,51.2,29.80,South,170,1.0,3.0,96,0.03,,---,0.47,33.00,VWS V14.01,2013-10-15 15:05:00,
2013-10-15 10:10:00,52.4,51.3,29.80,South,172,0.0,3.0,96,0.03,,---,0.47,54.00,VWS V14.01,2013-10-15 15:10:00,
2013-10-15 10:15:00,52.5,51.4,29.79,South,173,2.0,3.0,96,0.03,,---,0.47,49.00,VWS V14.01,2013-10-15 15:15:00,
2013-10-15 10:20:00,52.6,51.5,29.79,SSE,167,0.0,3.0,96,0.03,,---,0.47,91.00,VWS V14.01,2013-10-15 15:20:00,
2013-10-15 10:25:00,52.7,51.6,29.79,SSW,194,0.0,3.0,96,0.03,,---,0.47,65.00,VWS V14.01,2013-10-15 15:25:00,
2013-10-15 10:30:00,52.9,51.8,29.78,SSW,205,0.0,3.0,96,0.03,,---,0.47,62.00,VWS V14.01,2013-10-15 15:30:00,
2013-10-15 10:35:00,53.1,52.0,29.79,SSW,205,1.0,3.0,96,0.03,,---,0.47,54.00,VWS V14.01,2013-10-15 15:35:00,
2013-10-15 10:40:00,53.3,52.2,29.79,SW,219,2.0,3.0,96,0.03,,---,0.47,60.00,VWS V14.01,2013-10-15 15:40:00,
2013-10-15 10:45:00,53.4,52.3,29.78,SSW,200,2.0,4.0,96,0.03,,---,0.47,51.00,VWS V14.01,2013-10-15 15:45:00,
2013-10-15 10:50:00,53.6,52.5,29.78,SSW,198,2.0,4.0,96,0.03,,---,0.47,62.00,VWS V14.01,2013-10-15 15:50:00,
2013-10-15 10:55:00,53.7,52.6,29.77,SSW,207,0.0,4.0,96,0.03,,---,0.47,51.00,VWS V14.01,2013-10-15 15:55:00,
2013-10-15 11:00:00,53.8,52.7,29.77,South,188,2.0,3.0,96,0.00,,---,0.47,62.00,VWS V14.01,2013-10-15 16:00:00,
2013-10-15 11:05:00,53.9,52.8,29.77,SSW,211,5.0,5.0,96,0.00,,---,0.47,76.00,VWS V14.01,2013-10-15 16:05:00,
2013-10-15 11:10:00,54.0,52.9,29.77,SSE,167,2.0,5.0,96,0.00,,---,0.47,70.00,VWS V14.01,2013-10-15 16:10:00,
2013-10-15 11:15:00,54.2,53.1,29.77,South,186,2.0,5.0,96,0.00,,---,0.47,125.00,VWS V14.01,2013-10-15 16:15:00,
2013-10-15 11:20:00,54.4,53.3,29.77,SSW,199,1.0,5.0,96,0.00,,---,0.47,86.00,VWS V14.01,2013-10-15 16:20:00,
2013-10-15 11:25:00,54.6,53.5,29.77,SSW,210,0.0,5.0,96,0.00,,---,0.47,88.00,VWS V14.01,2013-10-15 16:25:00,
2013-10-15 11:30:00,54.7,53.6,29.76,South,178,2.0,5.0,96,0.00,,---,0.47,127.00,VWS V14.01,2013-10-15 16:30:00,
2013-10-15 11:35:00,55.0,53.9,29.76,South,190,0.0,5.0,96,0.00,,---,0.47,105.00,VWS V14.01,2013-10-15 16:35:00,
2013-10-15 11:40:00,55.2,54.1,29.76,SSW,208,1.0,5.0,96,0.00,,---,0.47,90.00,VWS V14.01,2013-10-15 16:40:00,
2013-10-15 11:45:00,55.3,54.2,29.77,South,183,0.0,5.0,96,0.00,,---,0.47,88.00,VWS V14.01,2013-10-15 16:45:00,
2013-10-15 11:50:00,55.5,54.4,29.76,South,184,2.0,5.0,96,0.00,,---,0.47,56.00,VWS V14.01,2013-10-15 16:50:00,
2013-10-15 11:55:00,55.5,54.4,29.76,SSW,196,2.0,5.0,96,0.00,,---,0.47,90.00,VWS V14.01,2013-10-15 16:55:00,
2013-10-15 12:00:00,55.6,54.5,29.76,SSW,194,2.0,4.0,96,0.00,,---,0.47,76.00,VWS V14.01,2013-10-15 17:00:00,
2013-10-15 12:05:00,55.8,54.7,29.76,SSW,202,2.0,4.0,96,0.00,,---,0.47,81.00,VWS V14.01,2013-10-15 17:05:00,
2013-10-15 12:10:00,55.9,54.8,29.75,SSW,202,2.0,4.0,96,0.00,,---,0.47,86.00,VWS V14.01,2013-10-15 17:10:00,
2013-10-15 12:15:00,56.0,54.9,29.75,SSW,198,1.0,7.0,96,0.00,,---,0.47,90.00,VWS V14.01,2013-10-15 17:15:00,
2013-10-15 12:20:00,56.2,55.1,29.75,SSW,201,0.0,7.0,96,0.00,,---,0.47,114.00,VWS V14.01,2013-10-15 17:20:00,
2013-10-15 12:25:00,56.3,55.2,29.74,SSW,200,4.0,7.0,96,0.00,,---,0.47,98.00,VWS V14.01,2013-10-15 17:25:00,
2013-10-15 12:30:00,56.4,55.3,29.74,South,184,1.0,7.0,96,0.00,,---,0.47,77.00,VWS V14.01,2013-10-15 17:30:00,
2013-10-15 12:35:00,56.5,55.4,29.74,SSE,160,1.0,7.0,96,0.00,,---,0.47,91.00,VWS V14.01,2013-10-15 17:35:00,
2013-10-15 12:40:00,56.6,55.5,29.74,SSW,194,3.0,7.0,96,0.00,,---,0.47,77.00,VWS V14.01,2013-10-15 17:40:00,
2013-10-15 12:45:00,56.6,55.5,29.73,SSW,197,3.0,7.0,96,0.00,,---,0.47,120.00,VWS V14.01,2013-10-15 17:45:00,
2013-10-15 12:50:00,56.7,55.6,29.74,SSW,200,1.0,7.0,96,0.00,,---,0.47,83.00,VWS V14.01,2013-10-15 17:50:00,
2013-10-15 12:55:00,56.7,55.6,29.73,SSW,195,3.0,7.0,96,0.00,,---,0.47,60.00,VWS V14.01,2013-10-15 17:55:00,
2013-10-15 13:00:00,56.7,55.3,29.73,SSW,211,3.0,7.0,95,0.00,,---,0.47,74.00,VWS V14.01,2013-10-15 18:00:00,
2013-10-15 13:05:00,56.7,55.3,29.73,SSW,211,1.0,7.0,95,0.00,,---,0.47,95.00,VWS V14.01,2013-10-15 18:05:00,
2013-10-15 13:10:00,56.7,55.3,29.72,SSW,205,4.0,7.0,95,0.00,,---,0.47,70.00,VWS V14.01,2013-10-15 18:10:00,
2013-10-15 13:15:00,56.7,55.3,29.72,South,179,0.0,7.0,95,0.00,,---,0.47,63.00,VWS V14.01,2013-10-15 18:15:00,
2013-10-15 13:20:00,56.7,55.3,29.72,SSW,197,1.0,7.0,95,0.00,,---,0.47,62.00,VWS V14.01,2013-10-15 18:20:00,
2013-10-15 13:25:00,56.7,55.3,29.71,SSW,205,2.0,7.0,95,0.00,,---,0.47,65.00,VWS V14.01,2013-10-15 18:25:00,
2013-10-15 13:30:00,56.7,55.3,29.71,SSW,205,0.0,7.0,95,0.00,,---,0.47,67.00,VWS V14.01,2013-10-15 18:30:00,
2013-10-15 13:35:00,56.8,55.4,29.71,South,186,2.0,7.0,95,0.00,,---,0.47,88.00,VWS V14.01,2013-10-15 18:35:00,
2013-10-15 13:40:00,56.8,55.4,29.71,SSW,200,3.0,7.0,95,0.00,,---,0.47,130.00,VWS V14.01,2013-10-15 18:40:00,
2013-10-15 13:45:00,56.9,55.5,29.71,SSW,192,3.0,7.0,95,0.00,,---,0.47,120.00,VWS V14.01,2013-10-15 18:45:00,
2013-10-15 13:50:00,57.1,55.7,29.70,SSW,205,3.0,7.0,95,0.00,,---,0.47,195.00,VWS V14.01,2013-10-15 18:50:00,
2013-10-15 13:55:00,57.3,55.9,29.70,South,177,2.0,7.0,95,0.00,,---,0.47,84.00,VWS V14.01,2013-10-15 18:55:00,
2013-10-15 14:00:00,57.4,56.0,29.70,SSW,211,3.0,3.0,95,0.00,,---,0.47,118.00,VWS V14.01,2013-10-15 19:00:00,
2013-10-15 14:05:00,57.5,56.1,29.70,SSW,211,2.0,4.0,95,0.00,,---,0.47,95.00,VWS V14.01,2013-10-15 19:05:00,
2013-10-15 14:10:00,57.6,56.2,29.70,SSW,195,0.0,4.0,95,0.00,,---,0.47,97.00,VWS V14.01,2013-10-15 19:10:00,
2013-10-15 14:15:00,57.7,56.3,29.70,SSW,204,4.0,4.0,95,0.00,,---,0.47,62.00,VWS V14.01,2013-10-15 19:15:00,
2013-10-15 14:20:00,57.7,56.3,29.70,SSW,203,0.0,4.0,95,0.00,,---,0.47,60.00,VWS V14.01,2013-10-15 19:20:00,
2013-10-15 14:25:00,57.7,56.3,29.70,SSW,203,3.0,5.0,95,0.00,,---,0.47,33.00,VWS V14.01,2013-10-15 19:25:00,
2013-10-15 14:30:00,57.6,55.9,29.70,SW,230,5.0,6.0,94,0.00,,---,0.47,67.00,VWS V14.01,2013-10-15 19:30:00,
2013-10-15 14:35:00,57.4,55.7,29.70,SW,230,5.0,7.0,94,0.00,,---,0.47,83.00,VWS V14.01,2013-10-15 19:35:00,
2013-10-15 14:40:00,57.5,55.5,29.70,SSW,200,3.0,7.0,93,0.00,,---,0.47,207.00,VWS V14.01,2013-10-15 19:40:00,
2013-10-15 14:45:00,58.1,55.5,29.70,SSW,207,4.0,8.0,91,0.00,,---,0.47,313.00,VWS V14.01,2013-10-15 19:45:00,
2013-10-15 14:50:00,59.4,56.2,29.70,SSW,196,6.0,8.0,89,0.00,,---,0.47,336.00,VWS V14.01,2013-10-15 19:50:00,
2013-10-15 14:55:00,59.6,55.4,29.70,SSW,202,5.0,8.0,86,0.00,,---,0.47,206.00,VWS V14.01,2013-10-15 19:55:00,
2013-10-15 15:00:00,59.3,54.8,29.70,SSW,212,4.0,7.0,85,0.00,,---,0.47,107.00,VWS V14.01,2013-10-15 20:00:00,
2013-10-15 15:05:00,59.0,54.8,29.70,SW,219,7.0,7.0,86,0.00,,---,0.47,153.00,VWS V14.01,2013-10-15 20:05:00,
2013-10-15 15:10:00,58.9,54.7,29.70,SW,217,3.0,7.0,86,0.00,,---,0.47,90.00,VWS V14.01,2013-10-15 20:10:00,
2013-10-15 15:15:00,58.7,54.5,29.70,SW,219,3.0,7.0,86,0.00,,---,0.47,86.00,VWS V14.01,2013-10-15 20:15:00,
2013-10-15 15:20:00,58.4,54.2,29.70,SSW,197,2.0,7.0,86,0.00,,---,0.47,123.00,VWS V14.01,2013-10-15 20:20:00,
2013-10-15 15:25:00,58.6,54.1,29.70,SSW,207,3.0,7.0,85,0.00,,---,0.47,142.00,VWS V14.01,2013-10-15 20:25:00,
2013-10-15 15:30:00,58.7,53.6,29.70,SSW,205,4.0,7.0,83,0.00,,---,0.47,158.00,VWS V14.01,2013-10-15 20:30:00,
2013-10-15 15:35:00,58.8,53.7,29.70,SSW,200,5.0,7.0,83,0.00,,---,0.47,262.00,VWS V14.01,2013-10-15 20:35:00,
2013-10-15 15:40:00,59.3,53.8,29.70,SW,223,3.0,7.0,82,0.00,,---,0.47,195.00,VWS V14.01,2013-10-15 20:40:00,
2013-10-15 15:45:00,59.0,52.5,29.70,SW,228,5.0,9.0,79,0.00,,---,0.47,149.00,VWS V14.01,2013-10-15 20:45:00,
2013-10-15 15:50:00,58.8,52.0,29.70,SW,221,6.0,9.0,78,0.00,,---,0.47,195.00,VWS V14.01,2013-10-15 20:50:00,
2013-10-15 15:55:00,59.6,52.4,29.70,SW,223,6.0,9.0,77,0.00,,---,0.47,478.00,VWS V14.01,2013-10-15 20:55:00,
2013-10-15 16:00:00,59.5,50.8,29.70,SW,220,6.0,8.0,73,0.00,,---,0.47,98.00,VWS V14.01,2013-10-15 21:00:00,
2013-10-15 16:05:00,58.8,50.5,29.70,SW,222,7.0,8.0,74,0.00,,---,0.47,125.00,VWS V14.01,2013-10-15 21:05:00,
2013-10-15 16:10:00,58.4,50.5,29.70,SSW,195,7.0,10.0,75,0.00,,---,0.47,90.00,VWS V14.01,2013-10-15 21:10:00,
2013-10-15 16:15:00,58.3,50.4,29.70,SW,227,3.0,10.0,75,0.00,,---,0.47,120.00,VWS V14.01,2013-10-15 21:15:00,
2013-10-15 16:20:00,58.3,50.8,29.70,West,271,3.0,10.0,76,0.00,,---,0.47,76.00,VWS V14.01,2013-10-15 21:20:00,
2013-10-15 16:25:00,58.2,50.3,29.71,SW,230,2.0,10.0,75,0.00,,---,0.47,79.00,VWS V14.01,2013-10-15 21:25:00,
2013-10-15 16:30:00,58.0,50.5,29.71,SW,222,4.0,10.0,76,0.00,,---,0.47,54.00,VWS V14.01,2013-10-15 21:30:00,
2013-10-15 16:35:00,57.5,50.0,29.71,SSW,200,7.0,10.0,76,0.00,,---,0.47,53.00,VWS V14.01,2013-10-15 21:35:00,
2013-10-15 16:40:00,57.1,49.6,29.71,SW,216,5.0,10.0,76,0.00,,---,0.47,46.00,VWS V14.01,2013-10-15 21:40:00,
2013-10-15 16:45:00,56.6,48.8,29.71,SW,223,6.0,10.0,75,0.00,,---,0.47,84.00,VWS V14.01,2013-10-15 21:45:00,
2013-10-15 16:50:00,56.3,48.8,29.72,SSW,213,5.0,10.0,76,0.00,,---,0.47,86.00,VWS V14.01,2013-10-15 21:50:00,
2013-10-15 16:55:00,55.8,47.3,29.72,SW,218,6.0,10.0,73,0.00,,---,0.47,72.00,VWS V14.01,2013-10-15 21:55:00,
2013-10-15 17:00:00,55.3,46.8,29.72,SW,227,9.0,9.0,73,0.00,,---,0.47,54.00,VWS V14.01,2013-10-15 22:00:00,
2013-10-15 17:05:00,55.1,47.0,29.72,SW,222,5.0,9.0,74,0.00,,---,0.47,49.00,VWS V14.01,2013-10-15 22:05:00,
2013-10-15 17:10:00,54.9,46.4,29.72,SSW,211,5.0,9.0,73,0.00,,---,0.47,37.00,VWS V14.01,2013-10-15 22:10:00,
2013-10-15 17:15:00,54.7,46.6,29.73,SW,218,7.0,10.0,74,0.00,,---,0.47,32.00,VWS V14.01,2013-10-15 22:15:00,
2013-10-15 17:20:00,54.4,46.3,29.72,SW,236,4.0,10.0,74,0.00,,---,0.47,32.00,VWS V14.01,2013-10-15 22:20:00,
2013-10-15 17:25:00,54.3,46.6,29.73,SSW,204,5.0,10.0,75,0.00,,---,0.47,28.00,VWS V14.01,2013-10-15 22:25:00,
2013-10-15 17:30:00,54.2,46.8,29.73,SW,216,3.0,10.0,76,0.00,,---,0.47,18.00,VWS V14.01,2013-10-15 22:30:00,
2013-10-15 17:35:00,54.0,46.6,29.73,SW,218,4.0,10.0,76,0.00,,---,0.47,9.00,VWS V14.01,2013-10-15 22:35:00,
2013-10-15 17:40:00,53.7,46.3,29.73,SSW,199,4.0,10.0,76,0.00,,---,0.47,5.00,VWS V14.01,2013-10-15 22:40:00,
2013-10-15 17:45:00,53.5,46.1,29.73,SW,220,5.0,10.0,76,0.00,,---,0.47,0.00,VWS V14.01,2013-10-15 22:45:00,
2013-10-15 17:50:00,53.2,45.8,29.73,WSW,237,3.0,10.0,76,0.00,,---,0.47,0.00,VWS V14.01,2013-10-15 22:50:00,
2013-10-15 17:55:00,53.0,45.7,29.73,SSW,202,6.0,11.0,76,0.00,,---,0.47,0.00,VWS V14.01,2013-10-15 22:55:00,
2013-10-15 18:00:00,52.8,45.5,29.74,SW,221,5.0,5.0,76,0.00,,---,0.47,0.00,VWS V14.01,2013-10-15 23:00:00,
2013-10-15 18:05:00,52.7,45.4,29.73,SSW,196,7.0,7.0,76,0.00,,---,0.47,0.00,VWS V14.01,2013-10-15 23:05:00,
2013-10-15 18:10:00,52.7,45.0,29.73,SW,233,3.0,7.0,75,0.00,,---,0.47,0.00,VWS V14.01,2013-10-15 23:10:00,
2013-10-15 18:15:00,52.6,44.9,29.74,SW,232,4.0,7.0,75,0.00,,---,0.47,0.00,VWS V14.01,2013-10-15 23:15:00,
2013-10-15 18:20:00,52.4,45.1,29.73,SSW,212,2.0,7.0,76,0.00,,---,0.47,0.00,VWS V14.01,2013-10-15 23:20:00,
2013-10-15 18:25:00,52.3,45.0,29.74,SW,233,4.0,7.0,76,0.00,,---,0.47,0.00,VWS V14.01,2013-10-15 23:25:00,
2013-10-15 18:30:00,52.2,45.2,29.73,WSW,239,2.0,7.0,77,0.00,,---,0.47,0.00,VWS V14.01,2013-10-15 23:30:00,
2013-10-15 18:35:00,52.1,45.5,29.74,WSW,239,3.0,7.0,78,0.00,,---,0.47,0.00,VWS V14.01,2013-10-15 23:35:00,
2013-10-15 18:40:00,52.1,45.5,29.74,SW,222,2.0,7.0,78,0.00,,---,0.47,0.00,VWS V14.01,2013-10-15 23:40:00,
2013-10-15 18:45:00,52.0,45.4,29.74,WSW,238,1.0,7.0,78,0.00,,---,0.47,0.00,VWS V14.01,2013-10-15 23:45:00,
2013-10-15 18:50:00,51.9,45.3,29.74,WSW,242,4.0,7.0,78,0.00,,---,0.47,0.00,VWS V14.01,2013-10-15 23:50:00,
2013-10-15 18:55:00,51.9,45.3,29.74,SW,228,3.0,7.0,78,0.00,,---,0.47,0.00,VWS V14.01,2013-10-15 23:55:00,
2013-10-15 19:00:00,51.8,45.5,29.74,SSW,210,2.0,5.0,79,0.00,,---,0.47,0.00,VWS V14.01,2013-10-16 00:00:00,
2013-10-15 19:05:00,51.7,45.4,29.74,SW,224,4.0,7.0,79,0.00,,---,0.47,0.00,VWS V14.01,2013-10-16 00:05:00,
2013-10-15 19:10:00,51.5,45.5,29.74,SW,223,3.0,7.0,80,0.00,,---,0.47,0.00,VWS V14.01,2013-10-16 00:10:00,
2013-10-15 19:15:00,51.4,45.8,29.75,SW,223,4.0,7.0,81,0.00,,---,0.47,0.00,VWS V14.01,2013-10-16 00:15:00,
2013-10-15 19:20:00,51.3,45.7,29.75,SSW,194,7.0,7.0,81,0.00,,---,0.47,0.00,VWS V14.01,2013-10-16 00:20:00,
2013-10-15 19:25:00,51.2,45.6,29.75,SW,217,4.0,7.0,81,0.00,,---,0.47,0.00,VWS V14.01,2013-10-16 00:25:00,
2013-10-15 19:30:00,51.0,45.7,29.75,SSW,211,4.0,7.0,82,0.00,,---,0.47,0.00,VWS V14.01,2013-10-16 00:30:00,
2013-10-15 19:35:00,50.8,45.8,29.75,SW,217,4.0,7.0,83,0.00,,---,0.47,0.00,VWS V14.01,2013-10-16 00:35:00,
2013-10-15 19:40:00,50.6,45.6,29.75,WSW,243,2.0,7.0,83,0.00,,---,0.47,0.00,VWS V14.01,2013-10-16 00:40:00,
2013-10-15 19:45:00,50.5,45.5,29.76,SW,225,3.0,7.0,83,0.00,,---,0.47,0.00,VWS V14.01,2013-10-16 00:45:00,
2013-10-15 19:50:00,50.3,45.7,29.76,SW,216,2.0,7.0,84,0.00,,---,0.47,0.00,VWS V14.01,2013-10-16 00:50:00,
2013-10-15 19:55:00,50.2,45.6,29.76,SW,227,3.0,7.0,84,0.00,,---,0.47,0.00,VWS V14.01,2013-10-16 00:55:00,
2013-10-15 20:00:00,50.1,45.8,29.76,WSW,242,2.0,2.0,85,0.00,,---,0.47,0.00,VWS V14.01,2013-10-16 01:00:00,
2013-10-15 20:05:00,50.0,45.7,29.76,SW,232,4.0,4.0,85,0.00,,---,0.47,0.00,VWS V14.01,2013-10-16 01:05:00,
2013-10-15 20:10:00,49.9,45.6,29.76,SSW,207,2.0,6.0,85,0.00,,---,0.47,0.00,VWS V14.01,2013-10-16 01:10:00,
2013-10-15 20:15:00,49.8,45.5,29.76,SW,223,3.0,6.0,85,0.00,,---,0.47,0.00,VWS V14.01,2013-10-16 01:15:00,
2013-10-15 20:20:00,49.8,45.8,29.76,SSW,208,3.0,6.0,86,0.00,,---,0.47,0.00,VWS V14.01,2013-10-16 01:20:00,
2013-10-15 20:25:00,49.7,45.7,29.76,SW,221,3.0,6.0,86,0.00,,---,0.47,0.00,VWS V14.01,2013-10-16 01:25:00,
2013-10-15 20:30:00,49.6,45.6,29.76,SW,226,3.0,6.0,86,0.00,,---,0.47,0.00,VWS V14.01,2013-10-16 01:30:00,
2013-10-15 20:35:00,49.5,45.8,29.76,SW,227,2.0,6.0,87,0.00,,---,0.47,0.00,VWS V14.01,2013-10-16 01:35:00,
2013-10-15 20:40:00,49.5,45.8,29.76,SW,227,1.0,6.0,87,0.00,,---,0.47,0.00,VWS V14.01,2013-10-16 01:40:00,
2013-10-15 20:45:00,49.4,46.0,29.76,SW,214,1.0,6.0,88,0.00,,---,0.47,0.00,VWS V14.01,2013-10-16 01:45:00,
2013-10-15 20:50:00,49.3,45.9,29.76,SSW,207,4.0,6.0,88,0.00,,---,0.47,0.00,VWS V14.01,2013-10-16 01:50:00,
2013-10-15 20:55:00,49.2,45.8,29.76,SSW,205,4.0,6.0,88,0.00,,---,0.47,0.00,VWS V14.01,2013-10-16 01:55:00,
2013-10-15 21:00:00,49.2,45.8,29.76,SSW,201,3.0,3.0,88,0.00,,---,0.47,0.00,VWS V14.01,2013-10-16 02:00:00,
2013-10-15 21:05:00,49.2,45.8,29.76,SW,234,2.0,5.0,88,0.00,,---,0.47,0.00,VWS V14.01,2013-10-16 02:05:00,
2013-10-15 21:10:00,49.2,45.8,29.76,SSW,213,3.0,5.0,88,0.00,,---,0.47,0.00,VWS V14.01,2013-10-16 02:10:00,
2013-10-15 21:15:00,49.2,45.5,29.76,SW,223,3.0,5.0,87,0.00,,---,0.47,0.00,VWS V14.01,2013-10-16 02:15:00,
2013-10-15 21:20:00,49.3,45.6,29.76,WSW,242,2.0,5.0,87,0.00,,---,0.47,0.00,VWS V14.01,2013-10-16 02:20:00,
2013-10-15 21:25:00,49.3,45.3,29.76,SSW,209,3.0,5.0,86,0.00,,---,0.47,0.00,VWS V14.01,2013-10-16 02:25:00,
2013-10-15 21:30:00,49.4,45.4,29.76,SSW,202,5.0,6.0,86,0.00,,---,0.47,0.00,VWS V14.01,2013-10-16 02:30:00,
2013-10-15 21:35:00,49.4,45.1,29.76,SW,224,3.0,6.0,85,0.00,,---,0.47,0.00,VWS V14.01,2013-10-16 02:35:00,
2013-10-15 21:40:00,49.5,44.9,29.76,SW,221,3.0,6.0,84,0.00,,---,0.47,0.00,VWS V14.01,2013-10-16 02:40:00,
2013-10-15 21:45:00,49.5,44.9,29.76,SSW,205,3.0,6.0,84,0.00,,---,0.47,0.00,VWS V14.01,2013-10-16 02:45:00,
2013-10-15 21:50:00,49.6,45.0,29.76,WSW,247,3.0,6.0,84,0.00,,---,0.47,0.00,VWS V14.01,2013-10-16 02:50:00,
2013-10-15 21:55:00,49.6,44.7,29.76,SSW,207,5.0,8.0,83,0.00,,---,0.47,0.00,VWS V14.01,2013-10-16 02:55:00,
2013-10-15 22:00:00,49.6,44.7,29.76,WSW,247,5.0,5.0,83,0.00,,---,0.47,0.00,VWS V14.01,2013-10-16 03:00:00,
2013-10-15 22:05:00,49.6,45.0,29.76,SW,225,3.0,5.0,84,0.00,,---,0.47,0.00,VWS V14.01,2013-10-16 03:05:00,
2013-10-15 22:10:00,49.6,45.0,29.76,SSW,205,5.0,7.0,84,0.00,,---,0.47,0.00,VWS V14.01,2013-10-16 03:10:00,
2013-10-15 22:15:00,49.5,44.9,29.76,SW,223,5.0,7.0,84,0.00,,---,0.47,0.00,VWS V14.01,2013-10-16 03:15:00,
2013-10-15 22:20:00,49.6,45.0,29.76,SSW,206,1.0,7.0,84,0.00,,---,0.47,0.00,VWS V14.01,2013-10-16 03:20:00,
2013-10-15 22:25:00,49.5,44.9,29.76,WSW,246,2.0,7.0,84,0.00,,---,0.47,0.00,VWS V14.01,2013-10-16 03:25:00,
2013-10-15 22:30:00,49.6,45.0,29.76,SSW,204,3.0,7.0,84,0.00,,---,0.47,0.00,VWS V14.01,2013-10-16 03:30:00,
2013-10-15 22:35:00,49.5,44.9,29.76,SW,217,3.0,7.0,84,0.00,,---,0.47,0.00,VWS V14.01,2013-10-16 03:35:00,
2013-10-15 22:40:00,49.5,44.9,29.76,SSW,200,5.0,7.0,84,0.00,,---,0.47,0.00,VWS V14.01,2013-10-16 03:40:00,
2013-10-15 22:45:00,49.4,44.8,29.76,SSW,194,6.0,7.0,84,0.00,,---,0.47,0.00,VWS V14.01,2013-10-16 03:45:00,
2013-10-15 22:50:00,49.4,44.8,29.75,SSW,198,4.0,7.0,84,0.00,,---,0.47,0.00,VWS V14.01,2013-10-16 03:50:00,
2013-10-15 22:55:00,49.2,44.9,29.75,SSW,209,4.0,7.0,85,0.00,,---,0.47,0.00,VWS V14.01,2013-10-16 03:55:00,
2013-10-15 23:00:00,49.2,45.2,29.75,SSW,205,4.0,7.0,86,0.00,,---,0.47,0.00,VWS V14.01,2013-10-16 04:00:00,
2013-10-15 23:01:00,49.1,45.1,29.75,SSW,203,3.0,7.0,86,0.00,,---,0.47,0.00,VWS V14.01,2013-10-16 04:01:00,
2013-10-15 23:06:00,49.0,45.0,29.75,WSW,238,3.0,7.0,86,0.00,,---,0.47,0.00,VWS V14.01,2013-10-16 04:06:00,
2013-10-15 23:11:00,48.9,45.2,29.75,WSW,242,3.0,7.0,87,0.00,,---,0.47,0.00,VWS V14.01,2013-10-16 04:11:00,
2013-10-15 23:16:00,48.9,45.2,29.75,SW,236,4.0,7.0,87,0.00,,---,0.47,0.00,VWS V14.01,2013-10-16 04:16:00,
2013-10-15 23:21:00,48.8,45.1,29.75,SSW,199,4.0,7.0,87,0.00,,---,0.47,0.00,VWS V14.01,2013-10-16 04:21:00,
2013-10-15 23:26:00,48.7,45.3,29.75,SSW,202,4.0,7.0,88,0.00,,---,0.47,0.00,VWS V14.01,2013-10-16 04:26:00,
2013-10-15 23:31:00,48.7,45.3,29.75,SSW,206,4.0,7.0,88,0.00,,---,0.47,0.00,VWS V14.01,2013-10-16 04:31:00,
2013-10-15 23:36:00,48.6,45.2,29.75,SSW,205,2.0,7.0,88,0.00,,---,0.47,0.00,VWS V14.01,2013-10-16 04:36:00,
2013-10-15 23:41:00,48.6,45.2,29.75,SW,234,3.0,7.0,88,0.00,,---,0.47,0.00,VWS V14.01,2013-10-16 04:41:00,
2013-10-15 23:46:00,48.5,45.4,29.75,SSW,206,4.0,7.0,89,0.00,,---,0.47,0.00,VWS V14.01,2013-10-16 04:46:00,
2013-10-15 23:51:00,48.5,45.4,29.74,SSW,205,4.0,7.0,89,0.00,,---,0.47,0.00,VWS V14.01,2013-10-16 04:51:00,
2013-10-15 23:56:00,48.4,45.3,29.74,SSW,206,1.0,7.0,89,0.00,,---,0.47,0.00,VWS V14.01,2013-10-16 04:56:00,